Terminal Aerodrome Forecast
Issued by NWS Wichita, KS

Home | Current Version | Previous Version | Text Only | Print | Product List | Glossary On
Versions: 1 2 3 4 5 6 7 8 9 10 11 12 13 14 15 16 17 18 19 20 21 22 23 24 25
000
FTUS43 KICT 281736
TAFICT
TAF
KICT 281736Z 2818/2918 16014KT P6SM SCT020 OVC070
     FM290300 16011KT P6SM BKN025
     FM290800 15010KT P6SM VCTS BKN025CB OVC080
     FM291400 19012KT P6SM SCT020 BKN035=

USA.gov is the U.S. government's official web portal to all federal, state and local government web resources and services.